FW9580 Weather Reports


time (UTC)temp
C
wind
direction
speed
KPH
gust
KPH
rain 1hr
cm
rain 24hr
cm
rain mn
cm
humidity
%
barometer
mb
20211017163002 12 335 17.7 25.7 0.00 2.90 2.74 84 1000.8
20211017162502 12 355 17.7 25.7 0.00 2.90 2.74 84 1000.9
20211017162002 12 300 14.5 25.7 0.00 2.90 2.74 85 1000.9
20211017161502 12 360 19.3 25.7 0.00 2.90 2.74 84 1000.9
20211017161002 12 327 16.1 27.4 0.00 2.90 2.74 84 1001.0
20211017160502 12 302 16.1 27.4 0.00 2.90 2.74 84 1000.9
20211017160007 12 325 19.3 25.7 0.00 2.90 2.74 85 1000.9
20211017155503 12 318 14.5 22.5 0.00 2.97 2.74 86 1001.0
20211017155002 12 321 12.9 24.1 0.00 2.97 2.74 88 1001.0
20211017154502 12 311 11.3 24.1 0.00 2.97 2.74 87 1001.1
20211017154002 12 317 14.5 24.1 0.00 2.97 2.74 87 1001.0
20211017153502 12 315 17.7 24.1 0.03 2.97 2.74 89 1001.0
20211017153002 12 315 12.9 24.1 0.03 2.97 2.74 89 1001.0
20211017152502 12 325 12.9 24.1 0.03 2.97 2.74 89 1001.1
20211017152007 12 323 17.7 24.1 0.03 2.97 2.74 89 1001.3
20211017151503 12 329 12.9 25.7 0.05 2.97 2.74 90 1001.3
20211017151009 12 296 17.7 25.7 0.05 2.97 2.74 90 1001.4
20211017150502 11 309 16.1 29.0 0.05 2.97 2.74 90 1001.4
20211017150017 11 273 17.7 29.0 0.05 2.97 2.74 90 1001.4
20211017145505 11 289 14.5 27.4 0.05 3.00 2.74 91 1001.4
20211017145002 12 319 14.5 25.7 0.08 3.00 2.74 91 1001.3
20211017144502 12 312 14.5 24.1 0.20 3.00 2.74 91 1001.3
20211017144002 12 309 14.5 25.7 0.20 3.00 2.74 91 1001.2
20211017143501 12 296 17.7 29.0 0.20 2.97 2.72 91 1001.2
20211017143002 12 290 19.3 29.0 0.20 2.97 2.72 91 1001.1
20211017142502 12 297 12.9 29.0 0.23 2.97 2.72 91 1001.0
20211017142008 12 293 12.9 22.5 0.23 2.97 2.72 91 1001.0
20211017141502 13 274 11.3 20.9 0.20 2.95 2.69 91 1000.9
20211017141002 13 319 6.4 12.9 0.20 2.95 2.69 91 1000.8
20211017140502 13 290 4.8 20.9 0.20 2.95 2.69 91 1000.7
20211017140004 13 314 9.7 22.5 0.20 2.95 2.69 91 1000.6
20211017135502 13 284 11.3 22.5 0.20 3.02 2.69 91 1000.6
20211017135005 13 308 9.7 19.3 0.15 2.97 2.64 91 1000.6
20211017134502 13 263 9.7 16.1 0.05 2.87 2.54 91 1000.7
20211017134002 13 279 4.8 11.3 0.05 2.87 2.54 91 1000.8
20211017133505 13 273 4.8 11.3 0.03 2.84 2.51 91 1000.8
20211017133005 13 260 6.4 11.3 0.03 2.84 2.51 91 1000.8
20211017132502 13 323 4.8 8.0 0.00 2.82 2.49 91 1000.5
20211017132003 13 264 3.2 4.8 0.00 2.82 2.49 91 1000.6
20211017131503 13 264 1.6 4.8 0.00 2.82 2.49 91 1000.5
20211017131002 13 58 3.2 6.4 0.00 2.82 2.49 91 1000.8
20211017130502 13 58 4.8 6.4 0.03 2.82 2.49 91 1000.2
20211017130003 13 255 0.0 4.8 0.03 2.82 2.49 91 1000.6
20211017125501 13 255 1.6 4.8 0.03 3.28 2.49 91 1000.9
20211017125000 13 255 1.6 4.8 0.03 3.28 2.49 91 1001.0
20211017124501 13 255 1.6 6.4 0.03 3.28 2.49 91 1001.0
20211017124001 13 255 3.2 6.4 0.03 3.28 2.49 91 1001.0
20211017123500 13 257 1.6 6.4 0.03 3.28 2.49 91 1000.9
20211017123001 13 257 1.6 9.7 0.03 3.28 2.49 91 1000.8
20211017122504 13 255 4.8 9.7 0.03 3.28 2.49 91 1000.8
20211017122001 13 269 4.8 6.4 0.03 3.28 2.49 91 1000.5
20211017121501 13 74 0.0 12.9 0.03 3.28 2.49 91 1000.1
20211017121000 13 68 4.8 16.1 0.03 3.28 2.49 91 999.6
20211017120500 13 46 6.4 16.1 0.00 3.25 2.46 91 999.4
20211017120009 13 33 8.0 16.1 0.00 3.25 2.46 91 999.3
20211017115500 13 348 4.8 12.9 0.00 3.56 2.46 91 1000.1
20211017115001 13 294 8.0 12.9 0.00 3.56 2.46 91 1000.8
20211017114501 13 301 6.4 9.7 0.00 3.56 2.46 91 1000.7
20211017114001 13 263 1.6 6.4 0.00 3.56 2.46 91 1000.5
20211017113501 13 263 1.6 9.7 0.00 3.56 2.46 91 1001.0
20211017113001 13 264 4.8 11.3 0.00 3.56 2.46 91 1001.2
20211017112500 13 264 6.4 11.3 0.00 3.56 2.46 91 1001.2
20211017112010 13 289 4.8 8.0 0.00 3.56 2.46 91 1000.7
20211017111501 13 307 3.2 4.8 0.00 3.56 2.46 91 1000.7
20211017111001 13 11 1.6 6.4 0.03 3.56 2.46 91 1000.6
20211017110501 13 11 1.6 6.4 0.05 3.56 2.46 91 1000.3
20211017110003 13 5 4.8 9.7 0.08 3.56 2.46 91 1000.1
20211017105501 13 46 4.8 9.7 0.15 3.58 2.46 91 1000.0
20211017105001 13 52 6.4 12.9 0.20 3.58 2.46 91 999.9
20211017104501 13 44 6.4 12.9 0.25 3.58 2.46 91 999.9
20211017104001 13 42 8.0 11.3 0.33 3.58 2.46 91 1000.1
20211017103501 13 47 8.0 11.3 0.43 3.58 2.46 90 1000.1
20211017103001 13 40 4.8 9.7 0.53 3.58 2.46 90 1000.4
20211017102501 13 36 6.4 9.7 0.58 3.58 2.46 90 1000.2
20211017102000 13 43 4.8 9.7 0.61 3.58 2.46 90 1000.9
20211017101502 13 58 6.4 9.7 0.64 3.58 2.46 90 1000.8
20211017101000 13 5 6.4 17.7 0.66 3.56 2.44 90 1000.6
20211017100501 13 348 3.2 17.7 0.71 3.53 2.41 90 1000.8
20211017100002 13 31 11.3 20.9 0.66 3.48 2.36 90 999.6
20211017095501 13 29 14.5 20.9 0.64 3.45 2.31 90 1000.1
20211017095001 13 34 6.4 16.1 0.61 3.40 2.26 90 1001.3
20211017094501 13 327 6.4 17.7 0.58 3.35 2.21 90 1001.5
20211017094001 13 324 12.9 17.7 0.51 3.28 2.13 90 1001.5
20211017093501 13 335 9.7 17.7 0.43 3.17 2.03 90 1001.3
20211017093001 13 304 9.7 17.7 0.46 3.07 1.93 90 1001.2
20211017092501 13 328 8.0 17.7 0.64 3.02 1.88 90 1001.0
20211017092001 13 5 11.3 19.3 0.69 3.00 1.85 90 1000.4
20211017091501 13 5 12.9 19.3 0.74 2.97 1.83 90 1000.4
20211017091001 13 37 9.7 17.7 0.74 2.92 1.78 90 1000.5
20211017090501 13 14 9.7 17.7 0.74 2.84 1.70 90 1000.7
20211017090003 13 32 8.0 20.9 0.91 2.84 1.70 90 1000.6
20211017085501 13 10 9.7 22.5 1.04 2.84 1.68 90 1000.4
20211017085001 14 331 12.9 22.5 1.02 2.82 1.65 90 1000.4
20211017084501 14 334 12.9 24.1 0.99 2.79 1.63 90 1000.5
20211017084001 14 346 16.1 30.6 0.99 2.79 1.63 89 1000.7
20211017083501 15 296 16.1 30.6 0.97 2.77 1.60 90 1000.4
20211017083001 15 236 9.7 27.4 0.84 2.64 1.47 91 1000.5
20211017082501 15 218 17.7 29.0 0.61 2.41 1.24 91 1000.9
20211017082000 15 208 16.1 27.4 0.53 2.34 1.17 90 1000.6
20211017081508 15 184 17.7 27.4 0.46 2.26 1.09 91 1000.6
20211017081001 15 177 19.3 32.2 0.41 2.21 1.04 91 1000.5
20211017075001 16 175 22.5 45.1 0.03 1.80 0.64 90 1000.2
20211017074500 16 195 22.5 45.1 0.05 1.80 0.64 90 1000.4
20211017074000 16 172 20.9 40.2 0.18 1.80 0.64 90 1000.4
20211017073501 16 192 25.7 40.2 0.30 1.80 0.64 90 1000.6
20211017073000 16 189 20.9 40.2 0.46 1.80 0.64 90 1000.6
20211017072500 16 160 20.9 40.2 0.56 1.80 0.64 90 1000.6
20211017072000 16 185 22.5 40.2 0.58 1.80 0.64 90 1000.8
20211017071500 16 200 27.4 35.4 0.61 1.80 0.64 90 1000.8
20211017071000 16 173 25.7 49.9 0.64 1.80 0.64 90 1000.9
20211017070501 16 189 29.0 49.9 0.61 1.78 0.61 89 1000.7
20211017070002 16 190 22.5 48.3 0.61 1.78 0.61 90 1000.8
20211017065500 16 167 25.7 54.7 0.61 1.80 0.61 90 1001.0
20211017065000 16 198 30.6 46.7 0.61 1.80 0.61 89 1000.8
20211017064500 16 164 32.2 41.8 0.58 1.78 0.58 89 1000.7
20211017064000 16 174 30.6 54.7 0.46 1.65 0.46 89 1000.9
20211017063500 16 176 40.2 61.2 0.33 1.52 0.33 88 1000.6
20211017063019 17 217 35.4 46.7 0.20 1.40 0.20 88 1000.9
20211017062503 17 156 30.6 56.3 0.08 1.27 0.08 88 1000.7
20211017060500 17 157 33.8 61.2 0.00 1.19 0.00 87 1001.3
20211017060004 17 190 38.6 62.8 0.00 1.19 0.00 87 1001.4
20211017055502 17 173 35.4 62.8 0.00 1.19 0.00 87 1001.4
20211017053502 17 168 33.8 61.2 0.00 1.19 0.00 87 1001.9
20211017053002 17 169 32.2 69.2 0.00 1.19 0.00 87 1002.1
20211017052502 17 177 37.0 69.2 0.00 1.19 0.00 87 1002.0
20211017052002 17 193 35.4 54.7 0.00 1.19 0.00 88 1002.3
20211017051502 17 171 30.6 59.5 0.00 1.19 0.00 87 1002.6
20211017051002 17 178 30.6 59.5 0.00 1.19 0.00 87 1002.8
20211017050502 17 195 32.2 59.5 0.00 1.19 0.00 87 1002.5
20211017050006 17 195 32.2 59.5 0.00 1.19 0.00 88 1002.7
20211017045502 17 172 40.2 57.9 0.00 1.19 1.19 88 1002.7
20211017045003 17 184 33.8 56.3 0.00 1.19 1.19 88 1002.6
20211017044503 17 197 35.4 61.2 0.00 1.19 1.19 89 1002.9
20211017044003 17 162 35.4 59.5 0.00 1.19 1.19 89 1002.9
20211017043502 16 167 29.0 59.5 0.00 1.19 1.19 88 1003.1
20211017043003 16 163 24.1 51.5 0.00 1.19 1.19 88 1003.1
20211017042502 16 194 33.8 64.4 0.00 1.19 1.19 89 1003.2
20211017042002 17 188 38.6 64.4 0.00 1.19 1.19 89 1003.0
20211017041515 16 174 33.8 59.5 0.00 1.19 1.19 89 1003.0
20211017040004 16 190 33.8 53.1 0.00 1.19 1.19 89 1003.4
20211017035502 16 202 30.6 57.9 0.00 1.19 1.19 89 1003.6
20211017035002 16 196 32.2 57.9 0.00 1.19 1.19 89 1003.6
20211017034503 16 190 33.8 46.7 0.00 1.19 1.19 89 1003.8
20211017034002 16 138 24.1 54.7 0.00 1.19 1.19 89 1004.0
20211017033503 16 151 33.8 61.2 0.03 1.19 1.19 89 1003.8
20211017033002 16 204 32.2 61.2 0.03 1.19 1.19 89 1004.0
20211017032502 16 192 33.8 48.3 0.03 1.19 1.19 89 1004.0
20211017032002 16 178 32.2 49.9 0.03 1.19 1.19 90 1004.2
20211017031503 16 176 33.8 56.3 0.03 1.19 1.19 90 1004.3
20211017031002 16 165 35.4 48.3 0.03 1.19 1.19 90 1004.3
20211017030502 16 213 25.7 45.1 0.03 1.19 1.19 90 1004.6
20211017030004 16 159 25.7 45.1 0.03 1.19 1.19 90 1004.6
20211017025502 16 146 27.4 45.1 0.05 1.19 1.19 90 1004.6
20211017025002 16 192 32.2 51.5 0.13 1.19 1.19 90 1004.7
20211017024502 16 173 29.0 51.5 0.13 1.19 1.19 90 1004.8
20211017024002 16 181 27.4 46.7 0.13 1.19 1.19 90 1004.9
20211017023502 16 153 27.4 45.1 0.10 1.17 1.17 90 1004.8
20211017023002 16 130 30.6 53.1 0.10 1.17 1.17 90 1004.8
20211017022502 16 191 37.0 53.1 0.10 1.17 1.17 90 1005.1
20211017022003 16 210 25.7 57.9 0.10 1.17 1.17 90 1005.1
20211017021502 16 173 32.2 57.9 0.10 1.17 1.17 90 1005.1
20211017021003 16 205 35.4 51.5 0.13 1.17 1.17 90 1005.0
20211017020513 16 162 29.0 43.5 0.13 1.17 1.17 90 1005.2
20211017020004 16 168 29.0 43.5 0.13 1.17 1.17 90 1005.3
20211017015502 16 206 22.5 45.1 0.10 1.14 1.14 90 1005.5
20211017015002 16 193 25.7 45.1 0.03 1.07 1.07 90 1005.4
20211017014502 16 161 20.9 62.8 0.03 1.07 1.07 90 1005.4
20211017014003 15 191 25.7 62.8 0.03 1.07 1.07 90 1005.4
20211017013502 15 183 29.0 49.9 0.03 1.07 1.07 90 1005.5
20211017013003 15 191 32.2 46.7 0.03 1.07 1.07 90 1005.7
20211017012503 15 182 33.8 48.3 0.03 1.07 1.07 90 1005.6
20211017012003 15 188 30.6 51.5 0.03 1.07 1.07 90 1005.6
20211017011502 15 193 30.6 51.5 0.03 1.07 1.07 90 1005.6
20211017011003 15 180 29.0 46.7 0.00 1.04 1.04 90 1005.8
20211017010004 15 191 27.4 45.1 0.00 1.04 1.04 90 1005.7
20211017005503 15 201 30.6 46.7 0.00 1.04 1.04 90 1005.7
20211017005003 15 175 22.5 46.7 0.00 1.04 1.04 90 1005.8
20211017004503 15 173 27.4 49.9 0.00 1.04 1.04 90 1005.7
20211017004002 15 167 32.2 49.9 0.00 1.04 1.04 90 1005.7
20211017003503 15 172 24.1 49.9 0.00 1.04 1.04 90 1005.8
20211017003003 15 178 25.7 43.5 0.00 1.04 1.04 90 1005.8
20211017002502 15 186 27.4 43.5 0.00 1.04 1.04 90 1005.9
20211017002003 15 182 25.7 37.0 0.00 1.04 1.04 90 1005.8
20211017001502 15 156 22.5 38.6 0.00 1.04 1.04 90 1005.8
20211017001003 15 159 29.0 38.6 0.00 1.04 1.04 90 1005.7
20211017000502 15 179 25.7 45.1 0.00 1.04 1.04 90 1005.8
20211017000005 15 180 22.5 41.8 0.00 1.04 1.04 90 1005.9
20211016235502 15 178 24.1 41.8 0.00 1.04 1.04 90 1005.9
20211016235003 15 198 27.4 37.0 0.00 1.04 1.04 90 1005.9
20211016234002 15 178 20.9 38.6 0.00 1.04 1.04 90 1006.0
20211016233502 15 198 20.9 32.2 0.00 1.04 1.04 90 1006.1
20211016233002 15 176 17.7 38.6 0.00 1.04 1.04 90 1006.2
20211016232503 15 175 22.5 38.6 0.00 1.04 1.04 90 1006.3
20211016232002 15 204 22.5 54.7 0.00 1.04 1.04 90 1006.3
20211016231502 15 171 27.4 54.7 0.00 1.04 1.04 90 1006.3
20211016231002 15 173 25.7 46.7 0.00 1.04 1.04 89 1006.4
20211016230502 15 191 25.7 38.6 0.00 1.04 1.04 89 1006.4
20211016230005 15 194 24.1 38.6 0.00 1.04 1.04 89 1006.4
20211016225502 15 165 20.9 43.5 0.00 1.04 1.04 89 1006.4
20211016225008 15 211 25.7 49.9 0.00 1.04 1.04 89 1006.6
20211016224502 15 161 29.0 49.9 0.00 1.04 1.04 89 1006.4
20211016224002 15 167 24.1 43.5 0.00 1.04 1.04 90 1006.3
20211016223502 15 142 22.5 40.2 0.00 1.04 1.04 90 1006.4
20211016223002 15 192 29.0 40.2 0.00 1.04 1.04 90 1006.4
20211016222502 15 170 29.0 49.9 0.00 1.04 1.04 90 1006.4
20211016222002 15 173 27.4 49.9 0.00 1.04 1.04 90 1006.5
20211016221508 15 170 29.0 56.3 0.00 1.04 1.04 90 1006.3
20211016221010 15 176 22.5 43.5 0.00 1.04 1.04 90 1006.5
20211016220502 15 182 25.7 43.5 0.00 1.04 1.04 90 1006.4
20211016220004 15 167 27.4 46.7 0.00 1.04 1.04 90 1006.5
20211016215502 15 193 29.0 43.5 0.00 1.04 1.04 90 1006.4
20211016215002 15 173 24.1 41.8 0.00 1.04 1.04 90 1006.4
20211016214501 15 161 22.5 40.2 0.00 1.04 1.04 90 1006.4
20211016214020 15 184 22.5 40.2 0.00 1.04 1.04 90 1006.6
20211016213547 15 176 27.4 43.5 0.00 1.04 1.04 90 1006.6
20211016213008 15 166 27.4 43.5 0.00 1.04 1.04 90 1006.6
20211016212501 15 175 29.0 46.7 0.00 1.04 1.04 90 1006.8
20211016212002 15 161 25.7 38.6 0.00 1.04 1.04 90 1006.6
20211016211502 15 177 24.1 37.0 0.00 1.04 1.04 90 1006.6
20211016211002 15 198 24.1 45.1 0.00 1.04 1.04 90 1006.7
20211016210502 15 167 25.7 45.1 0.00 1.04 1.04 90 1006.6
20211016210004 15 166 20.9 38.6 0.00 1.04 1.04 90 1006.6
20211016205503 15 166 22.5 37.0 0.00 1.04 1.04 90 1006.7
20211016205003 15 165 20.9 41.8 0.00 1.04 1.04 92 1006.8
20211016204503 15 184 22.5 45.1 0.00 1.04 1.04 90 1006.8
20211016204002 15 185 24.1 41.8 0.00 1.04 1.04 90 1007.0
20211016203503 15 184 24.1 35.4 0.00 1.04 1.04 90 1007.0
20211016203003 15 153 22.5 33.8 0.00 1.04 1.04 90 1006.9
20211016202503 15 173 22.5 37.0 0.00 1.04 1.04 90 1007.0
20211016202002 15 207 19.3 38.6 0.00 1.04 1.04 90 1007.0
20211016201502 15 162 22.5 38.6 0.00 1.04 1.04 90 1007.0
20211016201002 15 190 22.5 35.4 0.00 1.04 1.04 90 1007.0
20211016200502 15 193 20.9 38.6 0.00 1.04 1.04 90 1007.1
20211016200004 15 174 22.5 33.8 0.00 1.04 1.04 90 1007.2
20211016195502 15 171 24.1 35.4 0.00 1.04 1.04 91 1007.3
20211016195002 15 175 17.7 38.6 0.00 1.04 1.04 91 1007.1
20211016194503 15 156 20.9 38.6 0.00 1.04 1.04 91 1007.3
20211016194002 15 180 19.3 37.0 0.00 1.04 1.04 91 1007.3
20211016193502 15 191 24.1 37.0 0.00 1.04 1.04 91 1007.2
20211016193002 15 175 20.9 32.2 0.00 1.04 1.04 91 1007.3
20211016192503 15 196 17.7 33.8 0.00 1.04 1.04 91 1007.4
20211016192002 15 200 20.9 33.8 0.00 1.04 1.04 91 1007.4
20211016191503 15 198 19.3 30.6 0.00 1.04 1.04 91 1007.6
20211016191002 15 183 20.9 33.8 0.00 1.04 1.04 91 1007.7
20211016190502 15 186 19.3 33.8 0.00 1.04 1.04 91 1007.7
20211016190004 15 194 20.9 35.4 0.00 1.04 1.04 91 1007.7
20211016185502 15 184 22.5 38.6 0.00 1.04 1.04 91 1007.7
20211016185003 15 181 20.9 32.2 0.00 1.04 1.04 91 1007.8
20211016184503 15 192 17.7 32.2 0.00 1.04 1.04 91 1007.7
20211016184002 15 163 20.9 33.8 0.00 1.04 1.04 91 1007.7
20211016183502 15 182 17.7 33.8 0.00 1.04 1.04 91 1007.7
20211016183006 15 188 16.1 33.8 0.00 1.04 1.04 91 1007.6
20211016182502 15 201 19.3 35.4 0.00 1.04 1.04 91 1007.7
20211016182003 15 186 27.4 35.4 0.00 1.04 1.04 91 1007.7
20211016181502 15 164 20.9 37.0 0.00 1.04 1.04 91 1007.7
20211016181002 15 195 22.5 40.2 0.00 1.04 1.04 91 1007.6
20211016180502 15 194 17.7 40.2 0.00 1.04 1.04 91 1007.7
20211016180004 15 159 17.7 33.8 0.00 1.04 1.04 91 1007.9
20211016175502 15 159 24.1 38.6 0.00 1.04 1.04 91 1008.0
20211016175002 15 213 19.3 37.0 0.00 1.04 1.04 91 1007.8
20211016174502 15 200 22.5 37.0 0.00 1.04 1.04 91 1008.1
20211016174002 15 171 17.7 33.8 0.00 1.04 1.04 91 1008.1
20211016173502 15 165 20.9 35.4 0.00 1.04 1.04 91 1008.2
20211016173002 15 188 22.5 35.4 0.00 1.04 1.04 91 1008.2
20211016172502 15 194 25.7 38.6 0.00 1.04 1.04 91 1008.2
20211016172002 15 194 19.3 37.0 0.00 1.04 1.04 91 1008.2
20211016171502 15 165 25.7 37.0 0.00 1.04 1.04 91 1008.2
20211016171004 15 180 22.5 37.0 0.00 1.04 1.04 91 1008.4
20211016170502 15 190 17.7 35.4 0.00 1.04 1.04 91 1008.6
20211016170004 15 161 22.5 35.4 0.00 1.04 1.04 91 1008.6
20211016165502 15 187 25.7 37.0 0.00 1.04 1.04 91 1008.6
20211016165003 15 165 24.1 37.0 0.00 1.04 1.04 92 1008.7
20211016164502 15 161 20.9 35.4 0.00 1.04 1.04 91 1008.8
20211016164003 15 156 19.3 32.2 0.03 1.04 1.04 91 1008.7
20211016163503 15 161 19.3 32.2 0.03 1.04 1.04 91 1008.6